createdAt,value
2023-02-12T00:00:47.853Z,3.90
2023-02-12T00:03:16.443Z,7.00
2023-02-12T00:05:43.377Z,6.80
2023-02-12T00:08:12.303Z,5.70
2023-02-12T00:10:43.936Z,3.60
2023-02-12T00:13:15.404Z,7.70
2023-02-12T00:15:44.183Z,4.00
2023-02-12T00:18:11.443Z,4.80
2023-02-12T00:20:38.693Z,91.00
2023-02-12T00:23:06.794Z,9.10
2023-02-12T00:25:35.266Z,3.40
2023-02-12T00:28:02.243Z,4.50
2023-02-12T00:30:30.132Z,4.00
2023-02-12T00:32:57.362Z,2.80
2023-02-12T00:35:24.547Z,4.20
2023-02-12T00:37:51.659Z,7.40
2023-02-12T00:40:19.531Z,4.50
2023-02-12T00:42:46.986Z,3.60
2023-02-12T00:45:14.148Z,3.30
2023-02-12T00:47:41.190Z,2.40
2023-02-12T00:50:08.958Z,2.30
2023-02-12T00:52:36.015Z,3.60
2023-02-12T00:55:03.789Z,3.70
2023-02-12T00:57:31.055Z,3.50
2023-02-12T00:59:58.098Z,3.60
2023-02-12T01:02:25.857Z,2.50
2023-02-12T01:04:52.838Z,2.00
2023-02-12T01:07:19.760Z,2.80
2023-02-12T01:09:46.626Z,2.80
2023-02-12T01:12:13.560Z,2.60
2023-02-12T01:14:40.511Z,2.50
2023-02-12T01:17:09.934Z,4.40
2023-02-12T01:19:36.872Z,6.20
2023-02-12T01:22:04.435Z,4.90
2023-02-12T01:24:31.384Z,4.40
2023-02-12T01:26:58.715Z,7.10
2023-02-12T01:29:25.547Z,2.90
2023-02-12T01:31:52.609Z,4.60
2023-02-12T01:34:19.624Z,6.40
2023-02-12T01:36:46.556Z,7.50
2023-02-12T01:39:13.702Z,3.70
2023-02-12T01:41:44.036Z,4.00
2023-02-12T01:44:19.989Z,2.90
2023-02-12T01:46:50.577Z,7.40
2023-02-12T01:49:24.742Z,5.00
2023-02-12T01:51:59.474Z,6.50
2023-02-12T01:54:28.474Z,15.60
2023-02-12T01:56:55.844Z,8.30
2023-02-12T01:59:24.103Z,9.50
2023-02-12T02:01:51.043Z,10.80
2023-02-12T02:04:24.105Z,6.00
2023-02-12T02:06:56.504Z,3.60
2023-02-12T02:09:24.648Z,5.50
2023-02-12T02:14:40.774Z,3.40
2023-02-12T02:17:25.944Z,7.40
2023-02-12T02:20:24.737Z,7.60
2023-02-12T02:23:30.068Z,6.90
2023-02-12T02:26:41.944Z,12.00
2023-02-12T02:29:26.842Z,4.50
2023-02-12T02:31:59.199Z,6.50
2023-02-12T02:34:53.039Z,3.40
2023-02-12T02:37:48.537Z,2.50
2023-02-12T02:40:21.061Z,3.60
2023-02-12T02:42:56.597Z,3.80
2023-02-12T02:45:42.243Z,2.60
2023-02-12T02:48:26.992Z,3.50
2023-02-12T02:51:01.835Z,7.10
2023-02-12T02:53:33.979Z,10.70
2023-02-12T02:56:03.850Z,3.90
2023-02-12T03:01:19.276Z,6.20
2023-02-12T03:03:52.955Z,3.70
2023-02-12T03:06:30.801Z,5.30
2023-02-12T03:09:05.685Z,4.50
2023-02-12T03:11:34.558Z,3.80
2023-02-12T03:14:21.144Z,8.20
2023-02-12T03:17:04.254Z,4.70
2023-02-12T03:19:47.851Z,2.10
2023-02-12T03:22:20.562Z,2.90
2023-02-12T03:25:09.924Z,2.10
2023-02-12T03:27:41.746Z,2.10
2023-02-12T03:30:09.739Z,3.30
2023-02-12T03:32:42.464Z,2.20
2023-02-12T03:35:13.136Z,2.30
2023-02-12T03:38:02.194Z,2.20
2023-02-12T03:41:05.546Z,3.70
2023-02-12T03:43:50.623Z,2.60
2023-02-12T03:46:24.100Z,5.20
2023-02-12T03:49:03.071Z,3.50
2023-02-12T03:51:39.794Z,2.70
2023-02-12T03:54:09.655Z,3.20
2023-02-12T03:59:22.032Z,2.90
2023-02-12T04:01:52.025Z,3.10
2023-02-12T04:04:19.689Z,2.70
2023-02-12T04:06:49.264Z,3.20
2023-02-12T04:09:17.298Z,4.00
2023-02-12T04:12:22.565Z,2.70
2023-02-12T04:15:15.306Z,2.30
2023-02-12T04:17:58.478Z,2.60
2023-02-12T04:20:54.438Z,3.10
2023-02-12T04:23:30.498Z,2.00
2023-02-12T04:26:25.615Z,4.70
2023-02-12T04:29:01.186Z,2.80
2023-02-12T04:31:36.681Z,2.60
2023-02-12T04:34:20.982Z,2.50
2023-02-12T04:37:10.164Z,2.90
2023-02-12T04:39:40.723Z,7.00
2023-02-12T04:42:08.281Z,5.70
2023-02-12T04:44:39.023Z,5.80
2023-02-12T04:47:05.972Z,3.90
2023-02-12T04:49:35.894Z,2.60
2023-02-12T04:52:02.733Z,3.30
2023-02-12T04:54:29.592Z,7.30
2023-02-12T04:57:02.229Z,3.00
2023-02-12T04:59:29.114Z,4.20
2023-02-12T05:01:55.973Z,7.60
2023-02-12T05:04:22.911Z,5.10
2023-02-12T05:06:49.763Z,3.20
2023-02-12T05:09:19.377Z,2.70
2023-02-12T05:11:46.238Z,7.90
2023-02-12T05:14:13.993Z,10.50
2023-02-12T05:16:41.353Z,5.20
2023-02-12T05:19:09.783Z,4.30
2023-02-12T05:21:38.133Z,6.40
2023-02-12T05:24:05.530Z,6.70
2023-02-12T05:26:32.432Z,9.60
2023-02-12T05:28:59.293Z,11.50
2023-02-12T05:31:26.346Z,6.70
2023-02-12T05:33:53.510Z,4.00
2023-02-12T05:36:22.830Z,2.90
2023-02-12T05:38:52.260Z,5.90
2023-02-12T05:41:22.212Z,7.30
2023-02-12T05:46:18.520Z,5.80
2023-02-12T05:48:46.108Z,6.70
2023-02-12T05:51:16.735Z,12.90
2023-02-12T05:53:43.622Z,6.70
2023-02-12T05:56:15.106Z,5.60
2023-02-12T05:58:45.191Z,8.00
2023-02-12T06:01:18.093Z,8.60
2023-02-12T06:03:45.091Z,7.80
2023-02-12T06:06:15.394Z,5.70
2023-02-12T06:08:42.499Z,4.70
2023-02-12T06:11:14.588Z,4.90
2023-02-12T06:13:42.010Z,4.00
2023-02-12T06:16:24.311Z,5.50
2023-02-12T06:18:52.812Z,3.50
2023-02-12T06:21:21.468Z,3.80
2023-02-12T06:23:49.933Z,3.30
2023-02-12T06:26:17.565Z,2.70
2023-02-12T06:28:45.531Z,3.10
2023-02-12T06:31:24.510Z,1.90
2023-02-12T06:33:52.758Z,2.10
2023-02-12T06:36:20.886Z,3.30
2023-02-12T06:38:48.385Z,5.60
2023-02-12T06:41:15.543Z,5.50
2023-02-12T06:43:42.496Z,5.20
2023-02-12T06:46:10.112Z,9.90
2023-02-12T06:48:37.478Z,12.10
2023-02-12T06:51:16.558Z,14.10
2023-02-12T06:53:44.706Z,13.00
2023-02-12T06:56:13.457Z,11.10
2023-02-12T06:58:42.532Z,9.30
2023-02-12T07:01:18.798Z,10.80
2023-02-12T07:03:54.683Z,5.10
2023-02-12T07:06:23.015Z,5.20
2023-02-12T07:08:50.066Z,6.50
2023-02-12T07:11:17.490Z,3.80
2023-02-12T07:13:45.581Z,6.80
2023-02-12T07:16:15.293Z,11.60
2023-02-12T07:18:44.477Z,9.20
2023-02-12T07:21:12.643Z,4.40
2023-02-12T07:23:40.136Z,2.10
2023-02-12T07:26:12.975Z,2.00
2023-02-12T07:28:40.598Z,2.20
2023-02-12T07:31:12.476Z,1.60
2023-02-12T07:33:40.191Z,3.30
2023-02-12T07:36:15.130Z,2.80
2023-02-12T07:38:42.655Z,2.20
2023-02-12T07:41:18.269Z,3.50
2023-02-12T07:43:46.688Z,1.20
2023-02-12T07:46:17.588Z,1.80
2023-02-12T07:48:46.000Z,3.20
2023-02-12T07:51:16.019Z,4.20
2023-02-12T07:56:15.981Z,2.50
2023-02-12T07:58:45.278Z,2.90
2023-02-12T08:01:36.670Z,1.40
2023-02-12T08:04:07.089Z,2.30
2023-02-12T08:06:37.799Z,2.20
2023-02-12T08:09:10.047Z,1.30
2023-02-12T08:11:38.671Z,2.20
2023-02-12T08:14:06.121Z,1.80
2023-02-12T08:16:37.446Z,1.70
2023-02-12T08:19:16.965Z,2.40
2023-02-12T08:21:49.118Z,1.70
2023-02-12T08:24:16.077Z,1.80
2023-02-12T08:26:42.916Z,1.80
2023-02-12T08:29:13.699Z,2.50
2023-02-12T08:31:43.919Z,1.60
2023-02-12T08:34:31.819Z,2.80
2023-02-12T08:36:59.468Z,2.00
2023-02-12T08:39:29.383Z,1.80
2023-02-12T08:41:57.594Z,2.80
2023-02-12T08:44:24.854Z,2.10
2023-02-12T08:46:53.418Z,3.60
2023-02-12T08:49:23.893Z,3.00
2023-02-12T08:54:51.700Z,2.80
2023-02-12T08:57:25.913Z,3.40
2023-02-12T08:59:53.452Z,2.70
2023-02-12T09:02:20.470Z,3.30
2023-02-12T09:04:47.392Z,3.00
2023-02-12T09:07:14.247Z,3.40
2023-02-12T09:09:41.085Z,3.20
2023-02-12T09:12:08.049Z,2.80
2023-02-12T09:14:34.967Z,3.70
2023-02-12T09:17:01.938Z,2.90
2023-02-12T09:19:28.998Z,3.30
2023-02-12T09:21:56.901Z,3.20
2023-02-12T09:24:27.844Z,4.00
2023-02-12T09:26:55.706Z,3.20
2023-02-12T09:29:22.534Z,2.80
2023-02-12T09:31:49.736Z,5.30
2023-02-12T09:34:16.748Z,2.80
2023-02-12T09:36:43.590Z,3.60
2023-02-12T09:39:10.547Z,2.50
2023-02-12T09:42:08.391Z,2.80
2023-02-12T09:44:46.694Z,1.90
2023-02-12T09:47:23.685Z,1.90
2023-02-12T09:50:02.642Z,2.30
2023-02-12T09:52:30.471Z,2.30
2023-02-12T09:55:01.416Z,2.30
2023-02-12T09:57:37.670Z,2.20
2023-02-12T10:00:25.193Z,3.20
2023-02-12T10:02:53.892Z,1.70
2023-02-12T10:05:29.237Z,3.00
2023-02-12T10:08:23.934Z,2.50
2023-02-12T10:11:21.389Z,2.40
2023-02-12T10:14:16.561Z,3.30
2023-02-12T10:16:56.193Z,2.80
2023-02-12T10:19:33.899Z,2.70
2023-02-12T10:22:21.834Z,8.50
2023-02-12T10:28:39.737Z,1.90
2023-02-12T10:31:15.125Z,2.00
2023-02-12T10:33:53.344Z,2.70
2023-02-12T10:39:54.110Z,2.30
2023-02-12T10:42:52.444Z,2.70
2023-02-12T10:46:10.225Z,2.20
2023-02-12T10:49:10.547Z,3.50
2023-02-12T10:51:55.838Z,3.10
2023-02-12T10:54:47.384Z,3.90
2023-02-12T10:57:22.190Z,2.60
2023-02-12T10:59:53.284Z,2.50
2023-02-12T11:02:22.746Z,3.50
2023-02-12T11:04:50.474Z,3.00
2023-02-12T11:07:18.070Z,3.00
2023-02-12T11:09:49.987Z,5.90
2023-02-12T11:12:22.926Z,3.00
2023-02-12T11:15:01.826Z,4.70
2023-02-12T11:17:29.925Z,2.60
2023-02-12T11:20:18.114Z,2.40
2023-02-12T11:22:58.095Z,3.40
2023-02-12T11:28:19.733Z,8.20
2023-02-12T11:31:17.786Z,4.10
2023-02-12T11:33:45.939Z,3.40
2023-02-12T11:36:15.728Z,3.90
2023-02-12T11:39:16.766Z,3.30
2023-02-12T11:41:44.042Z,3.80
2023-02-12T11:44:21.793Z,4.40
2023-02-12T11:47:03.886Z,3.80
2023-02-12T11:49:35.317Z,4.50
2023-02-12T11:52:04.370Z,4.00
2023-02-12T11:54:39.403Z,4.90
2023-02-12T11:57:06.304Z,4.70
2023-02-12T11:59:41.026Z,3.70
2023-02-12T12:02:26.332Z,6.70
2023-02-12T12:04:56.562Z,3.90
2023-02-12T12:07:31.602Z,5.00
2023-02-12T12:10:46.447Z,4.50
2023-02-12T12:13:18.437Z,7.20
2023-02-12T12:16:09.516Z,6.00
2023-02-12T12:19:06.481Z,4.10
2023-02-12T12:22:21.618Z,4.20
2023-02-12T12:24:57.038Z,4.10
2023-02-12T12:28:06.776Z,4.40
2023-02-12T12:31:01.117Z,4.50
2023-02-12T12:33:48.960Z,5.60
2023-02-12T12:36:34.021Z,3.60
2023-02-12T12:39:21.544Z,5.80
2023-02-12T12:42:08.675Z,4.60
2023-02-12T12:44:41.581Z,6.40
2023-02-12T12:47:30.395Z,5.10
2023-02-12T12:50:09.511Z,8.90
2023-02-12T12:53:02.656Z,4.40
2023-02-12T12:55:59.260Z,7.70
2023-02-12T12:58:57.276Z,4.90
2023-02-12T13:01:38.139Z,6.30
2023-02-12T13:04:22.415Z,4.90
2023-02-12T13:07:38.184Z,8.20
2023-02-12T13:10:16.708Z,6.30
2023-02-12T13:16:13.089Z,8.80
2023-02-12T13:19:12.560Z,7.10
2023-02-12T13:21:48.746Z,14.50
2023-02-12T13:24:37.369Z,7.10
2023-02-12T13:27:11.484Z,7.30
2023-02-12T13:30:23.743Z,8.20
2023-02-12T13:33:02.623Z,7.60
2023-02-12T13:35:31.497Z,9.70
2023-02-12T13:38:00.686Z,7.90
2023-02-12T13:40:30.513Z,7.50
2023-02-12T13:43:13.314Z,6.90
2023-02-12T13:45:59.763Z,8.60
2023-02-12T13:48:56.248Z,8.80
2023-02-12T13:51:34.746Z,13.40
2023-02-12T13:54:26.113Z,9.90
2023-02-12T13:57:00.448Z,7.20
2023-02-12T13:59:34.365Z,9.10
2023-02-12T14:02:25.308Z,8.10
2023-02-12T14:05:00.629Z,6.60
2023-02-12T14:07:47.660Z,7.30
2023-02-12T14:10:22.783Z,8.80
2023-02-12T14:12:50.313Z,9.70
2023-02-12T14:15:29.630Z,7.70
2023-02-12T14:18:02.556Z,10.00
2023-02-12T14:20:30.934Z,9.50
2023-02-12T14:23:22.849Z,8.80
2023-02-12T14:25:58.111Z,8.70
2023-02-12T14:28:55.088Z,8.70
2023-02-12T14:31:32.190Z,8.80
2023-02-12T14:34:05.040Z,7.30
2023-02-12T14:36:43.297Z,9.70
2023-02-12T14:39:19.384Z,9.00
2023-02-12T14:41:48.868Z,10.10
2023-02-12T14:44:20.533Z,11.20
2023-02-12T14:46:55.161Z,9.30
2023-02-12T14:49:29.033Z,9.40
2023-02-12T14:52:07.987Z,11.40
2023-02-12T14:54:41.692Z,13.10
2023-02-12T14:57:36.397Z,10.70
2023-02-12T15:00:18.879Z,12.30
2023-02-12T15:02:55.908Z,11.90
2023-02-12T15:05:28.107Z,10.10
2023-02-12T15:08:04.998Z,10.80
2023-02-12T15:10:42.250Z,14.50
2023-02-12T15:13:30.530Z,13.60
2023-02-12T15:16:23.329Z,16.30
2023-02-12T15:19:19.469Z,12.30
2023-02-12T15:21:46.845Z,15.00
2023-02-12T15:24:21.075Z,14.90
2023-02-12T15:26:53.526Z,12.40
2023-02-12T15:29:41.481Z,14.50
2023-02-12T15:32:15.682Z,10.70
2023-02-12T15:34:43.148Z,11.10
2023-02-12T15:37:10.222Z,16.10
2023-02-12T15:39:43.760Z,16.70
2023-02-12T15:42:31.832Z,18.90
2023-02-12T15:45:20.168Z,14.20
2023-02-12T15:48:01.105Z,17.10
2023-02-12T15:50:30.380Z,15.20
2023-02-12T15:52:57.565Z,19.60
2023-02-12T15:55:27.615Z,22.50
2023-02-12T15:57:57.952Z,27.40
2023-02-12T16:00:24.701Z,26.40
2023-02-12T16:02:55.071Z,24.50
2023-02-12T16:05:24.051Z,28.10
2023-02-12T16:07:51.679Z,24.30
2023-02-12T16:10:21.070Z,18.30
2023-02-12T16:12:49.487Z,23.50
2023-02-12T16:15:42.776Z,21.10
2023-02-12T16:18:24.940Z,20.50
2023-02-12T16:21:04.423Z,17.70
2023-02-12T16:23:32.026Z,18.90
2023-02-12T16:25:59.649Z,16.80
2023-02-12T16:28:31.803Z,19.80
2023-02-12T16:31:13.471Z,19.80
2023-02-12T16:33:48.750Z,36.10
2023-02-12T16:36:24.310Z,16.80
2023-02-12T16:38:51.287Z,129.50
2023-02-12T16:41:18.220Z,63.00
2023-02-12T16:43:47.307Z,226.80
2023-02-12T16:46:16.957Z,122.30
2023-02-12T16:48:51.959Z,158.70
2023-02-12T16:51:26.196Z,92.20
2023-02-12T16:53:57.887Z,47.20
2023-02-12T16:56:27.421Z,26.40
2023-02-12T16:58:58.446Z,40.20
2023-02-12T17:01:26.754Z,36.00
2023-02-12T17:03:55.489Z,39.70
2023-02-12T17:06:30.872Z,45.40
2023-02-12T17:08:58.560Z,52.80
2023-02-12T17:11:27.832Z,37.50
2023-02-12T17:13:57.332Z,40.40
2023-02-12T17:16:30.709Z,41.20
2023-02-12T17:18:59.569Z,38.10
2023-02-12T17:21:53.211Z,41.20
2023-02-12T17:24:26.045Z,33.40
2023-02-12T17:26:54.461Z,28.10
2023-02-12T17:29:23.761Z,28.70
2023-02-12T17:31:53.784Z,33.40
2023-02-12T17:34:22.239Z,33.50
2023-02-12T17:36:50.037Z,39.60
2023-02-12T17:39:18.040Z,36.00
2023-02-12T17:41:45.967Z,34.30
2023-02-12T17:44:15.437Z,29.60
2023-02-12T17:46:43.168Z,31.10
2023-02-12T17:49:10.409Z,28.80
2023-02-12T17:51:37.664Z,31.80
2023-02-12T17:54:04.876Z,32.80
2023-02-12T17:56:32.040Z,40.70
2023-02-12T17:58:58.972Z,32.90
2023-02-12T18:01:26.431Z,33.00
2023-02-12T18:03:55.745Z,27.90
2023-02-12T18:06:25.561Z,30.10
2023-02-12T18:08:52.920Z,31.00
2023-02-12T18:11:20.282Z,26.90
2023-02-12T18:13:47.679Z,30.90
2023-02-12T18:16:15.110Z,31.10
2023-02-12T18:18:42.653Z,33.90
2023-02-12T18:21:15.554Z,34.50
2023-02-12T18:23:43.841Z,35.00
2023-02-12T18:26:18.600Z,48.60
2023-02-12T18:28:46.142Z,36.30
2023-02-12T18:31:13.311Z,30.20
2023-02-12T18:33:40.979Z,29.70
2023-02-12T18:36:11.072Z,32.50
2023-02-12T18:38:39.461Z,32.90
2023-02-12T18:41:15.654Z,30.40
2023-02-12T18:43:44.006Z,31.00
2023-02-12T18:46:18.726Z,34.80
2023-02-12T18:48:45.909Z,41.70
2023-02-12T18:51:22.661Z,39.10
2023-02-12T18:54:01.435Z,33.50
2023-02-12T18:56:33.781Z,35.80
2023-02-12T18:59:04.927Z,37.20
2023-02-12T19:01:33.744Z,40.70
2023-02-12T19:04:03.587Z,39.90
2023-02-12T19:09:01.161Z,33.60
2023-02-12T19:11:29.592Z,36.10
2023-02-12T19:13:57.362Z,35.70
2023-02-12T19:16:27.776Z,42.00
2023-02-12T19:19:04.727Z,40.50
2023-02-12T19:21:32.349Z,37.40
2023-02-12T19:24:01.374Z,34.10
2023-02-12T19:26:29.816Z,37.60
2023-02-12T19:28:57.877Z,32.00
2023-02-12T19:31:28.368Z,34.30
2023-02-12T19:34:01.718Z,34.40
2023-02-12T19:36:33.039Z,33.80
2023-02-12T19:39:01.458Z,36.10
2023-02-12T19:41:34.184Z,40.50
2023-02-12T19:44:03.959Z,35.40
2023-02-12T19:46:34.468Z,31.50
2023-02-12T19:49:05.510Z,35.80
2023-02-12T19:51:32.868Z,35.20
2023-02-12T19:54:04.915Z,37.60
2023-02-12T19:56:31.905Z,39.00
2023-02-12T19:58:59.031Z,37.60
2023-02-12T20:01:27.237Z,40.30
2023-02-12T20:03:55.558Z,39.20
2023-02-12T20:06:26.880Z,44.50
2023-02-12T20:08:54.936Z,47.70
2023-02-12T20:11:29.003Z,46.10
2023-02-12T20:13:56.900Z,43.20
2023-02-12T20:16:31.296Z,44.40
2023-02-12T20:19:20.360Z,42.30
2023-02-12T20:21:53.868Z,45.60
2023-02-12T20:24:26.467Z,44.50
2023-02-12T20:26:54.581Z,46.50
2023-02-12T20:29:21.839Z,39.90
2023-02-12T20:31:49.449Z,42.80
2023-02-12T20:34:18.421Z,46.00
2023-02-12T20:36:46.997Z,49.80
2023-02-12T20:39:16.724Z,52.70
2023-02-12T20:41:43.870Z,47.70
2023-02-12T20:44:17.057Z,47.20
2023-02-12T20:46:56.096Z,49.20
2023-02-12T20:49:25.093Z,47.10
2023-02-12T20:51:53.175Z,52.80
2023-02-12T20:54:20.427Z,57.00
2023-02-12T20:56:49.393Z,56.70
2023-02-12T20:59:16.470Z,53.40
2023-02-12T21:01:43.414Z,55.90
2023-02-12T21:04:17.126Z,52.60
2023-02-12T21:06:45.097Z,51.80
2023-02-12T21:09:14.334Z,49.00
2023-02-12T21:11:45.894Z,46.90
2023-02-12T21:14:23.642Z,51.90
2023-02-12T21:16:53.937Z,50.60
2023-02-12T21:19:22.143Z,47.80
2023-02-12T21:21:49.695Z,50.90
2023-02-12T21:24:19.781Z,48.90
2023-02-12T21:29:14.136Z,50.10
2023-02-12T21:31:46.324Z,48.20
2023-02-12T21:34:17.109Z,50.20
2023-02-12T21:36:46.581Z,47.30
2023-02-12T21:39:19.036Z,51.80
2023-02-12T21:41:45.979Z,47.50
2023-02-12T21:44:15.204Z,51.90
2023-02-12T21:46:42.291Z,51.80
2023-02-12T21:49:10.945Z,47.60
2023-02-12T21:51:43.789Z,45.30
2023-02-12T21:54:13.637Z,45.80
2023-02-12T21:59:09.271Z,46.60
2023-02-12T22:01:39.081Z,50.70
2023-02-12T22:04:07.258Z,49.00
2023-02-12T22:06:38.768Z,45.10
2023-02-12T22:09:08.292Z,52.70
2023-02-12T22:11:36.823Z,48.40
2023-02-12T22:14:04.695Z,45.20
2023-02-12T22:16:32.098Z,50.80
2023-02-12T22:19:01.900Z,48.40
2023-02-12T22:23:57.804Z,53.50
2023-02-12T22:26:27.929Z,54.10
2023-02-12T22:28:58.260Z,54.00
2023-02-12T22:31:29.463Z,51.80
2023-02-12T22:34:10.674Z,54.00
2023-02-12T22:36:39.277Z,49.60
2023-02-12T22:39:06.518Z,49.90
2023-02-12T22:41:33.978Z,51.80
2023-02-12T22:44:02.595Z,49.60
2023-02-12T22:46:29.826Z,45.40
2023-02-12T22:49:00.472Z,47.20
2023-02-12T22:51:30.591Z,44.70
2023-02-12T22:53:58.473Z,46.20
2023-02-12T22:56:26.025Z,41.10
2023-02-12T22:58:57.699Z,46.50
2023-02-12T23:01:25.429Z,45.70
2023-02-12T23:03:53.422Z,49.40
2023-02-12T23:06:23.800Z,42.90
2023-02-12T23:08:52.954Z,44.80
2023-02-12T23:11:20.891Z,40.00
2023-02-12T23:13:48.075Z,42.80
2023-02-12T23:16:15.254Z,44.40
2023-02-12T23:18:42.524Z,42.00
2023-02-12T23:21:09.742Z,40.40
2023-02-12T23:23:36.800Z,36.30
2023-02-12T23:26:03.861Z,44.00
2023-02-12T23:28:31.185Z,38.00
2023-02-12T23:30:58.982Z,37.90
2023-02-12T23:33:26.256Z,37.00
2023-02-12T23:35:53.114Z,38.70
2023-02-12T23:38:20.068Z,39.60
2023-02-12T23:40:48.606Z,40.90
2023-02-12T23:43:17.957Z,35.90
2023-02-12T23:45:47.386Z,36.20
2023-02-12T23:48:14.518Z,39.30
2023-02-12T23:50:41.979Z,35.90
2023-02-12T23:53:10.261Z,38.30
2023-02-12T23:55:38.354Z,38.30
2023-02-12T23:58:06.624Z,40.60
